CA-0442 weather

Little's Farm
Ontario, Canada

Public forecast

Using degrees Celsius for public forecast. Weather courtesy of forecast.io.

METAR (pilot weather report)

Closest report is Lester B. Pearson International Airport, 10.0 nm (18.5 km) SE. Retrieved 2019/05/24 00:00 UTC (38 minutes ago):

CYYZ 240000Z 29020G28KT 15SM SCT061 SCT080 22/07 A2982 RMK CU3AC1 SLP099 DENSITY ALT 1600FT

TAF (pilot weather forecast)

Forecast is more than 12 hours old.

Closest forecast is Lester B. Pearson International Airport, 10.0 nm (18.5 km) SE. Retrieved 2019/05/23 00:39 UTC (24 hours ago):

TAF CYYZ 232338Z 2400/2506 28020G30KT P6SM SCT060 BECMG 2401/2402 30012G22KT FM241000 31012KT P6SM BKN015 FM241400 33008KT P6SM SCT025 FM242200 VRB03KT P6SM BKN025 OVC120 RMK NXT FCST BY 240300Z